createdAt,value
2019-05-02T00:00:12.645Z,24.89
2019-05-02T00:03:16.062Z,24.87
2019-05-02T00:06:19.559Z,24.89
2019-05-02T00:09:23.528Z,24.87
2019-05-02T00:12:32.837Z,24.90
2019-05-02T00:15:38.240Z,24.88
2019-05-02T00:18:43.576Z,24.86
2019-05-02T00:21:47.083Z,24.84
2019-05-02T00:24:50.597Z,24.81
2019-05-02T00:27:54.098Z,24.83
2019-05-02T00:30:57.648Z,24.84
2019-05-02T00:34:01.081Z,24.87
2019-05-02T00:37:04.609Z,24.83
2019-05-02T00:40:08.116Z,24.83
2019-05-02T00:43:11.517Z,24.83
2019-05-02T00:46:15.113Z,24.84
2019-05-02T00:49:18.583Z,24.83
2019-05-02T00:52:22.106Z,24.82
2019-05-02T00:55:28.977Z,24.82
2019-05-02T00:58:31.921Z,24.82
2019-05-02T01:01:51.763Z,24.83
2019-05-02T01:04:59.337Z,24.81
2019-05-02T01:08:01.138Z,24.78
2019-05-02T01:11:05.611Z,24.81
2019-05-02T01:14:09.114Z,24.81
2019-05-02T01:17:12.639Z,24.81
2019-05-02T01:20:17.631Z,24.81
2019-05-02T01:23:23.074Z,24.81
2019-05-02T01:26:29.617Z,24.80
2019-05-02T01:29:42.466Z,24.79
2019-05-02T01:33:06.451Z,24.79
2019-05-02T01:36:13.764Z,24.76
2019-05-02T01:39:17.184Z,24.78
2019-05-02T01:42:20.581Z,24.75
2019-05-02T01:45:27.265Z,24.76
2019-05-02T01:48:30.851Z,24.74
2019-05-02T01:51:36.843Z,24.75
2019-05-02T01:54:45.368Z,24.76
2019-05-02T01:57:46.042Z,24.76
2019-05-02T02:00:49.734Z,24.75
2019-05-02T02:03:53.273Z,24.74
2019-05-02T02:06:56.772Z,24.74
2019-05-02T02:10:00.274Z,24.75
2019-05-02T02:13:05.323Z,24.71
2019-05-02T02:16:09.035Z,24.73
2019-05-02T02:19:18.480Z,24.73
2019-05-02T02:22:40.772Z,24.73
2019-05-02T02:25:49.714Z,24.71
2019-05-02T02:28:53.232Z,24.72
2019-05-02T02:31:56.772Z,24.73
2019-05-02T02:35:03.516Z,24.69
2019-05-02T02:38:05.389Z,24.69
2019-05-02T02:41:12.918Z,24.70
2019-05-02T02:44:33.530Z,24.70
2019-05-02T02:47:36.763Z,24.70
2019-05-02T02:50:43.166Z,24.70
2019-05-02T02:53:45.422Z,24.71
2019-05-02T02:56:48.887Z,24.70
2019-05-02T02:59:52.306Z,24.69
2019-05-02T03:02:56.039Z,24.69
2019-05-02T03:06:05.892Z,24.70
2019-05-02T03:09:06.783Z,24.67
2019-05-02T03:12:41.650Z,24.67
2019-05-02T03:15:48.544Z,24.67
2019-05-02T03:18:52.118Z,24.68
2019-05-02T03:22:01.061Z,24.66
2019-05-02T03:25:00.777Z,24.68
2019-05-02T03:28:04.322Z,24.64
2019-05-02T03:31:21.202Z,24.65
2019-05-02T03:34:12.899Z,24.64
2019-05-02T03:37:16.405Z,24.67
2019-05-02T03:40:19.907Z,24.68
2019-05-02T03:43:25.585Z,24.67
2019-05-02T03:46:28.735Z,24.65
2019-05-02T03:49:32.263Z,24.65
2019-05-02T03:52:43.498Z,24.65
2019-05-02T03:55:43.170Z,24.65
2019-05-02T03:58:48.350Z,24.66
2019-05-02T04:01:51.771Z,24.67
2019-05-02T04:05:00.580Z,24.65
2019-05-02T04:08:00.960Z,24.64
2019-05-02T04:11:24.410Z,24.62
2019-05-02T04:14:37.482Z,24.66
2019-05-02T04:17:35.769Z,24.64
2019-05-02T04:20:43.562Z,24.63
2019-05-02T04:23:44.450Z,24.63
2019-05-02T04:26:54.021Z,24.61
2019-05-02T04:29:53.396Z,24.61
2019-05-02T04:32:57.970Z,24.58
2019-05-02T04:36:01.351Z,24.61
2019-05-02T04:39:12.694Z,24.63
2019-05-02T04:42:18.249Z,24.60
2019-05-02T04:45:26.473Z,24.59
2019-05-02T04:48:24.242Z,24.61
2019-05-02T04:51:31.759Z,24.59
2019-05-02T04:54:32.950Z,24.59
2019-05-02T04:57:46.801Z,24.60
2019-05-02T05:00:45.171Z,24.61
2019-05-02T05:03:57.417Z,24.59
2019-05-02T05:06:58.139Z,24.58
2019-05-02T05:10:03.168Z,24.58
2019-05-02T05:13:07.843Z,24.57
2019-05-02T05:16:15.570Z,24.56
2019-05-02T05:19:17.909Z,24.51
2019-05-02T05:22:21.289Z,24.54
2019-05-02T05:25:30.868Z,24.55
2019-05-02T05:28:35.095Z,24.52
2019-05-02T05:31:39.460Z,24.54
2019-05-02T05:34:42.891Z,24.55
2019-05-02T05:37:51.179Z,24.57
2019-05-02T05:40:52.643Z,24.55
2019-05-02T05:43:57.421Z,24.58
2019-05-02T05:47:00.960Z,24.57
2019-05-02T05:50:04.888Z,24.55
2019-05-02T05:53:12.478Z,24.58
2019-05-02T05:56:13.533Z,24.59
2019-05-02T05:59:17.587Z,24.59
2019-05-02T06:02:21.007Z,24.56
2019-05-02T06:05:24.546Z,24.58
2019-05-02T06:08:28.167Z,24.57
2019-05-02T06:11:31.787Z,24.57
2019-05-02T06:14:35.435Z,24.57
2019-05-02T06:17:38.953Z,24.52
2019-05-02T06:20:44.627Z,24.57
2019-05-02T06:23:48.121Z,24.49
2019-05-02T06:26:51.943Z,24.47
2019-05-02T06:29:57.334Z,24.49
2019-05-02T06:33:00.994Z,24.48
2019-05-02T06:36:05.624Z,24.49
2019-05-02T06:39:09.329Z,24.52
2019-05-02T06:42:13.040Z,24.51
2019-05-02T06:45:18.374Z,24.54
2019-05-02T06:48:24.482Z,24.52
2019-05-02T06:51:28.009Z,24.58
2019-05-02T06:54:31.622Z,24.62
2019-05-02T06:57:35.103Z,24.63
2019-05-02T07:00:56.492Z,24.65
2019-05-02T07:03:46.321Z,24.65
2019-05-02T07:06:58.765Z,24.65
2019-05-02T07:09:56.892Z,24.68
2019-05-02T07:13:09.959Z,24.67
2019-05-02T07:16:16.074Z,24.68
2019-05-02T07:19:27.209Z,24.69
2019-05-02T07:22:33.050Z,24.70
2019-05-02T07:25:39.128Z,24.71
2019-05-02T07:28:45.774Z,24.71
2019-05-02T07:31:48.925Z,24.73
2019-05-02T07:34:53.574Z,24.74
2019-05-02T07:37:57.056Z,24.74
2019-05-02T07:41:00.506Z,24.76
2019-05-02T07:44:04.444Z,24.76
2019-05-02T07:47:08.017Z,24.77
2019-05-02T07:50:11.959Z,24.78
2019-05-02T07:53:15.757Z,24.78
2019-05-02T07:56:19.302Z,24.79
2019-05-02T07:59:25.106Z,24.81
2019-05-02T08:02:29.784Z,24.81
2019-05-02T08:05:33.285Z,24.81
2019-05-02T08:08:38.845Z,24.83
2019-05-02T08:11:42.340Z,24.87
2019-05-02T08:14:45.997Z,24.89
2019-05-02T08:17:53.800Z,24.90
2019-05-02T08:20:57.286Z,24.94
2019-05-02T08:24:02.210Z,24.97
2019-05-02T08:27:22.880Z,25.01
2019-05-02T08:30:27.939Z,25.01
2019-05-02T08:33:34.790Z,25.04
2019-05-02T08:36:38.604Z,25.04
2019-05-02T08:39:42.155Z,25.02
2019-05-02T08:42:45.624Z,24.99
2019-05-02T08:45:49.242Z,24.98
2019-05-02T08:48:53.852Z,24.98
2019-05-02T08:51:57.335Z,24.98
2019-05-02T08:55:04.477Z,24.98
2019-05-02T08:58:14.230Z,24.94
2019-05-02T09:01:13.637Z,24.96
2019-05-02T09:04:17.691Z,24.99
2019-05-02T09:07:22.285Z,24.99
2019-05-02T09:10:25.934Z,25.01
2019-05-02T09:13:32.868Z,24.99
2019-05-02T09:16:35.798Z,24.99
2019-05-02T09:19:39.216Z,25.00
2019-05-02T09:22:46.654Z,25.01
2019-05-02T09:25:48.145Z,25.02
2019-05-02T09:28:51.834Z,25.03
2019-05-02T09:31:55.356Z,25.03
2019-05-02T09:35:02.145Z,25.05
2019-05-02T09:38:04.048Z,25.06
2019-05-02T09:41:16.921Z,25.09
2019-05-02T09:44:14.588Z,25.08
2019-05-02T09:47:27.409Z,25.06
2019-05-02T09:50:34.377Z,25.07
2019-05-02T09:53:37.062Z,25.08
2019-05-02T09:56:40.462Z,25.07
2019-05-02T09:59:50.267Z,25.07
2019-05-02T10:02:49.220Z,25.08
2019-05-02T10:05:54.818Z,25.08
2019-05-02T10:08:58.644Z,25.10
2019-05-02T10:12:02.250Z,25.11
2019-05-02T10:15:13.539Z,25.11
2019-05-02T10:18:19.631Z,25.10
2019-05-02T10:21:23.107Z,25.11
2019-05-02T10:24:26.527Z,25.12
2019-05-02T10:27:32.174Z,25.11
2019-05-02T10:30:36.098Z,25.13
2019-05-02T10:33:39.780Z,25.13
2019-05-02T10:36:45.370Z,25.16
2019-05-02T10:39:48.628Z,25.15
2019-05-02T10:42:52.286Z,25.19
2019-05-02T10:46:02.095Z,25.30
2019-05-02T10:49:20.248Z,25.31
2019-05-02T10:52:29.773Z,25.34
2019-05-02T10:55:33.219Z,25.34
2019-05-02T10:58:36.975Z,25.38
2019-05-02T11:02:02.406Z,25.37
2019-05-02T11:05:11.988Z,25.41
2019-05-02T11:08:15.414Z,25.45
2019-05-02T11:11:18.919Z,25.49
2019-05-02T11:14:28.880Z,25.52
2019-05-02T11:17:36.668Z,25.53
2019-05-02T11:20:41.917Z,25.53
2019-05-02T11:23:45.291Z,25.54
2019-05-02T11:26:48.922Z,25.55
2019-05-02T11:29:52.685Z,25.55
2019-05-02T11:32:57.163Z,25.53
2019-05-02T11:36:02.519Z,25.55
2019-05-02T11:39:16.238Z,25.55
2019-05-02T11:42:12.481Z,25.56
2019-05-02T11:45:16.055Z,25.59
2019-05-02T11:48:19.862Z,25.61
2019-05-02T11:51:23.447Z,25.59
2019-05-02T11:54:27.816Z,25.61
2019-05-02T11:57:33.158Z,25.62
2019-05-02T12:00:39.670Z,25.63
2019-05-02T12:03:45.549Z,25.66
2019-05-02T12:06:49.409Z,25.65
2019-05-02T12:09:57.007Z,25.67
2019-05-02T12:13:02.142Z,25.68
2019-05-02T12:16:08.628Z,25.72
2019-05-02T12:19:14.860Z,25.70
2019-05-02T12:22:17.334Z,25.71
2019-05-02T12:25:22.349Z,25.72
2019-05-02T12:28:25.970Z,25.77
2019-05-02T12:31:32.473Z,25.77
2019-05-02T12:34:36.917Z,25.79
2019-05-02T12:37:42.554Z,25.78
2019-05-02T12:40:46.021Z,25.79
2019-05-02T12:43:49.427Z,25.83
2019-05-02T12:46:52.922Z,25.82
2019-05-02T12:49:57.464Z,25.82
2019-05-02T12:53:03.128Z,25.88
2019-05-02T12:56:06.500Z,25.84
2019-05-02T12:59:11.862Z,25.81
2019-05-02T13:02:26.211Z,25.79
2019-05-02T13:05:31.788Z,25.89
2019-05-02T13:08:48.377Z,25.91
2019-05-02T13:12:02.810Z,25.95
2019-05-02T13:15:06.724Z,25.97
2019-05-02T13:18:12.409Z,25.98
2019-05-02T13:21:20.887Z,26.03
2019-05-02T13:24:32.629Z,26.05
2019-05-02T13:27:43.570Z,26.07
2019-05-02T13:31:06.708Z,26.10
2019-05-02T13:34:15.456Z,26.10
2019-05-02T13:37:19.988Z,26.11
2019-05-02T13:40:28.165Z,26.11
2019-05-02T13:43:39.615Z,26.15
2019-05-02T13:46:43.152Z,26.16
2019-05-02T13:49:53.842Z,26.17
2019-05-02T13:52:57.725Z,26.22
2019-05-02T13:56:16.301Z,26.24
2019-05-02T13:59:22.235Z,26.27
2019-05-02T14:02:36.624Z,26.28
2019-05-02T14:05:48.787Z,26.30
2019-05-02T14:08:55.311Z,26.31
2019-05-02T14:12:17.849Z,26.33
2019-05-02T14:15:23.633Z,26.37
2019-05-02T14:18:31.653Z,26.34
2019-05-02T14:21:34.718Z,26.33
2019-05-02T14:24:38.213Z,26.34
2019-05-02T14:27:42.252Z,26.37
2019-05-02T14:30:46.864Z,26.38
2019-05-02T14:34:08.293Z,26.37
2019-05-02T14:37:11.972Z,26.39
2019-05-02T14:40:25.641Z,26.39
2019-05-02T14:43:48.337Z,26.42
2019-05-02T14:46:52.359Z,26.42
2019-05-02T14:49:56.649Z,26.46
2019-05-02T14:53:04.316Z,26.46
2019-05-02T14:56:15.185Z,26.46
2019-05-02T14:59:20.071Z,26.44
2019-05-02T15:02:47.577Z,26.46
2019-05-02T15:05:49.540Z,26.47
2019-05-02T15:08:53.219Z,26.45
2019-05-02T15:12:02.432Z,26.44
2019-05-02T15:15:05.664Z,26.43
2019-05-02T15:18:15.855Z,26.43
2019-05-02T15:21:22.903Z,26.44
2019-05-02T15:24:27.698Z,26.43
2019-05-02T15:27:41.921Z,26.46
2019-05-02T15:30:44.790Z,26.42
2019-05-02T15:33:51.821Z,26.40
2019-05-02T15:36:55.457Z,26.41
2019-05-02T15:43:09.136Z,26.38
2019-05-02T15:46:09.466Z,26.37
2019-05-02T15:49:12.939Z,26.34
2019-05-02T15:52:24.175Z,26.37
2019-05-02T15:55:25.521Z,26.42
2019-05-02T15:58:29.177Z,26.43
2019-05-02T16:01:41.587Z,26.40
2019-05-02T16:04:45.872Z,26.40
2019-05-02T16:07:49.330Z,26.38
2019-05-02T16:10:54.718Z,26.36
2019-05-02T16:13:58.161Z,26.36
2019-05-02T16:17:03.761Z,26.37
2019-05-02T16:20:18.302Z,26.34
2019-05-02T16:23:29.859Z,26.32
2019-05-02T16:26:27.129Z,26.32
2019-05-02T16:29:31.819Z,26.30
2019-05-02T16:32:42.078Z,26.27
2019-05-02T16:35:52.928Z,26.29
2019-05-02T16:38:54.883Z,26.29
2019-05-02T16:42:02.410Z,26.28
2019-05-02T16:45:08.176Z,26.29
2019-05-02T16:48:12.031Z,26.28
2019-05-02T16:51:29.989Z,26.28
2019-05-02T16:54:22.375Z,26.29
2019-05-02T16:57:25.955Z,26.31
2019-05-02T17:00:32.048Z,26.31
2019-05-02T17:03:35.549Z,26.28
2019-05-02T17:06:40.005Z,26.28
2019-05-02T17:10:16.138Z,26.27
2019-05-02T17:13:16.683Z,26.24
2019-05-02T17:16:22.079Z,26.27
2019-05-02T17:19:26.113Z,26.25
2019-05-02T17:22:32.339Z,26.24
2019-05-02T17:25:36.266Z,26.19
2019-05-02T17:28:43.333Z,26.19
2019-05-02T17:31:44.959Z,26.17
2019-05-02T17:34:48.450Z,26.16
2019-05-02T17:37:52.369Z,26.15
2019-05-02T17:41:03.639Z,26.14
2019-05-02T17:44:03.188Z,26.13
2019-05-02T17:47:06.667Z,26.13
2019-05-02T17:50:19.516Z,26.10
2019-05-02T17:53:23.996Z,26.08
2019-05-02T17:56:27.415Z,26.10
2019-05-02T17:59:37.803Z,26.12
2019-05-02T18:02:42.364Z,26.19
2019-05-02T18:05:45.856Z,26.21
2019-05-02T18:08:51.602Z,26.22
2019-05-02T18:11:54.423Z,26.20
2019-05-02T18:14:59.024Z,26.21
2019-05-02T18:18:06.868Z,26.18
2019-05-02T18:21:09.258Z,26.22
2019-05-02T18:24:12.735Z,26.20
2019-05-02T18:27:16.127Z,26.20
2019-05-02T18:30:24.987Z,26.21
2019-05-02T18:33:26.523Z,26.22
2019-05-02T18:36:31.971Z,26.18
2019-05-02T18:39:44.748Z,26.17
2019-05-02T18:42:42.304Z,26.15
2019-05-02T18:45:45.504Z,26.11
2019-05-02T18:48:49.258Z,26.10
2019-05-02T18:51:57.161Z,26.09
2019-05-02T18:54:59.011Z,26.09
2019-05-02T18:58:05.392Z,26.06
2019-05-02T19:01:08.632Z,26.08
2019-05-02T19:04:13.242Z,26.07
2019-05-02T19:07:16.738Z,26.05
2019-05-02T19:10:20.215Z,26.04
2019-05-02T19:13:23.716Z,26.04
2019-05-02T19:16:28.854Z,26.01
2019-05-02T19:19:36.711Z,26.02
2019-05-02T19:22:48.109Z,26.01
2019-05-02T19:25:42.858Z,26.01
2019-05-02T19:29:02.309Z,25.99
2019-05-02T19:32:08.335Z,26.00
2019-05-02T19:35:11.766Z,25.98
2019-05-02T19:38:17.167Z,25.97
2019-05-02T19:41:22.194Z,25.97
2019-05-02T19:44:28.956Z,25.97
2019-05-02T19:47:31.694Z,25.95
2019-05-02T19:50:41.602Z,25.95
2019-05-02T19:53:42.797Z,25.94
2019-05-02T19:56:47.658Z,25.95
2019-05-02T19:59:52.449Z,25.94
2019-05-02T20:02:55.916Z,25.94
2019-05-02T20:06:02.313Z,25.92
2019-05-02T20:09:08.287Z,25.92
2019-05-02T20:12:15.498Z,25.91
2019-05-02T20:15:22.822Z,25.90
2019-05-02T20:18:22.495Z,25.90
2019-05-02T20:21:32.648Z,25.89
2019-05-02T20:24:58.326Z,25.90
2019-05-02T20:27:59.222Z,25.88
2019-05-02T20:31:03.729Z,25.82
2019-05-02T20:34:07.273Z,25.78
2019-05-02T20:37:12.618Z,25.76
2019-05-02T20:40:26.312Z,25.72
2019-05-02T20:43:32.320Z,25.72
2019-05-02T20:46:35.999Z,25.70
2019-05-02T20:49:39.475Z,25.68
2019-05-02T20:52:42.985Z,25.66
2019-05-02T20:55:46.488Z,25.65
2019-05-02T20:58:52.657Z,25.61
2019-05-02T21:01:56.300Z,25.61
2019-05-02T21:05:02.717Z,25.57
2019-05-02T21:08:16.992Z,25.56
2019-05-02T21:11:20.571Z,25.55
2019-05-02T21:14:24.071Z,25.52
2019-05-02T21:17:27.476Z,25.50
2019-05-02T21:20:32.547Z,25.48
2019-05-02T21:23:44.877Z,25.47
2019-05-02T21:26:42.118Z,25.45
2019-05-02T21:29:45.806Z,25.44
2019-05-02T21:32:49.269Z,25.44
2019-05-02T21:35:52.868Z,25.42
2019-05-02T21:38:56.383Z,25.39
2019-05-02T21:41:59.786Z,25.41
2019-05-02T21:45:03.398Z,25.40
2019-05-02T21:48:06.885Z,25.40
2019-05-02T21:51:22.613Z,25.38
2019-05-02T21:54:52.186Z,25.37
2019-05-02T21:57:55.705Z,25.37
2019-05-02T22:01:03.923Z,25.32
2019-05-02T22:04:08.426Z,25.33
2019-05-02T22:07:12.801Z,25.33
2019-05-02T22:10:16.212Z,25.31
2019-05-02T22:13:19.656Z,25.34
2019-05-02T22:16:23.054Z,25.32
2019-05-02T22:19:26.537Z,25.33
2019-05-02T22:22:31.784Z,25.31
2019-05-02T22:25:35.209Z,25.29
2019-05-02T22:28:38.681Z,25.30
2019-05-02T22:31:42.998Z,25.29
2019-05-02T22:34:46.727Z,25.29
2019-05-02T22:37:52.064Z,25.30
2019-05-02T22:40:57.249Z,25.27
2019-05-02T22:44:01.946Z,25.29
2019-05-02T22:47:05.506Z,25.25
2019-05-02T22:50:09.626Z,25.26
2019-05-02T22:53:15.077Z,25.23
2019-05-02T22:56:18.572Z,25.26
2019-05-02T22:59:23.911Z,25.22
2019-05-02T23:02:27.216Z,25.25
2019-05-02T23:05:32.121Z,25.20
2019-05-02T23:08:36.192Z,25.21
2019-05-02T23:11:39.788Z,25.18
2019-05-02T23:14:43.271Z,25.18
2019-05-02T23:17:46.804Z,25.18
2019-05-02T23:20:52.575Z,25.18
2019-05-02T23:23:58.279Z,25.19
2019-05-02T23:27:15.084Z,25.17
2019-05-02T23:30:22.514Z,25.15
2019-05-02T23:33:29.000Z,25.12
2019-05-02T23:36:32.785Z,25.17
2019-05-02T23:39:36.262Z,25.13
2019-05-02T23:42:41.601Z,25.13
2019-05-02T23:45:45.940Z,25.14
2019-05-02T23:48:49.337Z,25.15
2019-05-02T23:51:52.926Z,25.14
2019-05-02T23:54:56.465Z,25.13
2019-05-02T23:57:59.902Z,25.12
